sensor_id;sensor_type;location;lat;lon;timestamp;temperature;humidity
37274;DHT22;23161;51.250;5.554;2024-02-21T00:00:20;8.90;99.90
37274;DHT22;23161;51.250;5.554;2024-02-21T00:01:51;8.80;99.90
37274;DHT22;23161;51.250;5.554;2024-02-21T00:03:22;8.90;99.90
37274;DHT22;23161;51.250;5.554;2024-02-21T00:04:53;8.90;99.90
37274;DHT22;23161;51.250;5.554;2024-02-21T00:06:23;8.90;99.90
37274;DHT22;23161;51.250;5.554;2024-02-21T00:07:54;8.90;99.90
37274;DHT22;23161;51.250;5.554;2024-02-21T00:09:25;8.90;99.90
37274;DHT22;23161;51.250;5.554;2024-02-21T00:10:56;8.80;99.90
37274;DHT22;23161;51.250;5.554;2024-02-21T00:12:27;8.90;99.90
37274;DHT22;23161;51.250;5.554;2024-02-21T00:13:57;8.90;99.90
37274;DHT22;23161;51.250;5.554;2024-02-21T00:15:28;8.80;99.90
37274;DHT22;23161;51.250;5.554;2024-02-21T00:16:59;8.80;99.90
37274;DHT22;23161;51.250;5.554;2024-02-21T00:18:29;8.80;99.90
37274;DHT22;23161;51.250;5.554;2024-02-21T00:20:00;8.80;99.90
37274;DHT22;23161;51.250;5.554;2024-02-21T00:21:31;8.80;99.90
37274;DHT22;23161;51.250;5.554;2024-02-21T00:23:02;8.90;99.90
37274;DHT22;23161;51.250;5.554;2024-02-21T00:24:33;8.90;99.90
37274;DHT22;23161;51.250;5.554;2024-02-21T00:26:04;8.90;99.90
37274;DHT22;23161;51.250;5.554;2024-02-21T00:27:36;8.90;99.90
37274;DHT22;23161;51.250;5.554;2024-02-21T00:29:07;8.90;99.90
37274;DHT22;23161;51.250;5.554;2024-02-21T00:30:38;8.90;99.90
37274;DHT22;23161;51.250;5.554;2024-02-21T00:32:08;8.80;99.90
37274;DHT22;23161;51.250;5.554;2024-02-21T00:33:39;8.90;99.90
37274;DHT22;23161;51.250;5.554;2024-02-21T00:35:10;8.90;99.90
37274;DHT22;23161;51.250;5.554;2024-02-21T00:36:41;8.80;99.90
37274;DHT22;23161;51.250;5.554;2024-02-21T00:55:44;8.30;99.90
37274;DHT22;23161;51.250;5.554;2024-02-21T00:57:15;8.70;99.90
37274;DHT22;23161;51.250;5.554;2024-02-21T00:58:46;8.80;99.90
37274;DHT22;23161;51.250;5.554;2024-02-21T01:00:17;8.80;99.90
37274;DHT22;23161;51.250;5.554;2024-02-21T01:01:48;8.80;99.90
37274;DHT22;23161;51.250;5.554;2024-02-21T01:03:19;8.80;99.90
37274;DHT22;23161;51.250;5.554;2024-02-21T01:04:50;8.80;99.90
37274;DHT22;23161;51.250;5.554;2024-02-21T01:06:21;8.80;99.90
37274;DHT22;23161;51.250;5.554;2024-02-21T01:07:52;8.80;99.90
37274;DHT22;23161;51.250;5.554;2024-02-21T01:09:22;8.80;99.90
37274;DHT22;23161;51.250;5.554;2024-02-21T01:10:53;8.80;99.90
37274;DHT22;23161;51.250;5.554;2024-02-21T01:12:24;8.80;99.90
37274;DHT22;23161;51.250;5.554;2024-02-21T01:13:55;8.80;99.90
37274;DHT22;23161;51.250;5.554;2024-02-21T01:15:26;8.80;99.90
37274;DHT22;23161;51.250;5.554;2024-02-21T01:16:57;8.80;99.90
37274;DHT22;23161;51.250;5.554;2024-02-21T01:18:29;8.80;99.90
37274;DHT22;23161;51.250;5.554;2024-02-21T01:20:00;8.80;99.90
37274;DHT22;23161;51.250;5.554;2024-02-21T01:21:31;8.80;99.90
37274;DHT22;23161;51.250;5.554;2024-02-21T01:23:02;8.80;99.90
37274;DHT22;23161;51.250;5.554;2024-02-21T01:24:33;8.80;99.90
37274;DHT22;23161;51.250;5.554;2024-02-21T01:26:04;8.80;99.90
37274;DHT22;23161;51.250;5.554;2024-02-21T01:27:35;8.80;99.90
37274;DHT22;23161;51.250;5.554;2024-02-21T01:29:06;8.80;99.90
37274;DHT22;23161;51.250;5.554;2024-02-21T01:30:37;8.80;99.90
37274;DHT22;23161;51.250;5.554;2024-02-21T01:32:07;8.80;99.90
37274;DHT22;23161;51.250;5.554;2024-02-21T01:33:39;8.80;99.90
37274;DHT22;23161;51.250;5.554;2024-02-21T01:35:09;8.80;99.90
37274;DHT22;23161;51.250;5.554;2024-02-21T01:36:40;8.70;99.90
37274;DHT22;23161;51.250;5.554;2024-02-21T01:38:15;8.70;99.90
37274;DHT22;23161;51.250;5.554;2024-02-21T01:39:46;8.70;99.90
37274;DHT22;23161;51.250;5.554;2024-02-21T01:41:17;8.70;99.90
37274;DHT22;23161;51.250;5.554;2024-02-21T01:42:48;8.60;99.90
37274;DHT22;23161;51.250;5.554;2024-02-21T01:44:19;8.70;99.90
37274;DHT22;23161;51.250;5.554;2024-02-21T01:45:53;8.60;99.90
37274;DHT22;23161;51.250;5.554;2024-02-21T01:47:25;8.60;99.90
37274;DHT22;23161;51.250;5.554;2024-02-21T01:48:57;8.60;99.90
37274;DHT22;23161;51.250;5.554;2024-02-21T01:50:28;8.60;99.90
37274;DHT22;23161;51.250;5.554;2024-02-21T01:52:00;8.50;99.90
37274;DHT22;23161;51.250;5.554;2024-02-21T01:53:37;8.50;99.90
37274;DHT22;23161;51.250;5.554;2024-02-21T01:55:09;8.50;99.90
37274;DHT22;23161;51.250;5.554;2024-02-21T01:56:41;8.50;99.90
37274;DHT22;23161;51.250;5.554;2024-02-21T01:58:16;8.50;99.90
37274;DHT22;23161;51.250;5.554;2024-02-21T01:59:47;8.50;99.90
37274;DHT22;23161;51.250;5.554;2024-02-21T02:01:18;8.50;99.90
37274;DHT22;23161;51.250;5.554;2024-02-21T02:02:48;8.50;99.90
37274;DHT22;23161;51.250;5.554;2024-02-21T02:04:20;8.50;99.90
37274;DHT22;23161;51.250;5.554;2024-02-21T02:05:51;8.50;99.90
37274;DHT22;23161;51.250;5.554;2024-02-21T02:07:22;8.60;99.90
37274;DHT22;23161;51.250;5.554;2024-02-21T02:08:53;8.60;99.90
37274;DHT22;23161;51.250;5.554;2024-02-21T02:10:25;8.60;99.90
37274;DHT22;23161;51.250;5.554;2024-02-21T02:11:55;8.60;99.90
37274;DHT22;23161;51.250;5.554;2024-02-21T02:13:30;8.60;99.90
37274;DHT22;23161;51.250;5.554;2024-02-21T02:15:04;8.60;99.90
37274;DHT22;23161;51.250;5.554;2024-02-21T02:16:35;8.60;99.90
37274;DHT22;23161;51.250;5.554;2024-02-21T02:18:06;8.60;99.90
37274;DHT22;23161;51.250;5.554;2024-02-21T02:19:37;8.60;99.90
37274;DHT22;23161;51.250;5.554;2024-02-21T02:21:13;8.70;99.90
37274;DHT22;23161;51.250;5.554;2024-02-21T02:22:47;8.70;99.90
37274;DHT22;23161;51.250;5.554;2024-02-21T02:24:20;8.60;99.90
37274;DHT22;23161;51.250;5.554;2024-02-21T02:25:51;8.70;99.90
37274;DHT22;23161;51.250;5.554;2024-02-21T02:27:24;8.70;99.90
37274;DHT22;23161;51.250;5.554;2024-02-21T02:28:55;8.70;99.90
37274;DHT22;23161;51.250;5.554;2024-02-21T02:30:26;8.60;99.90
37274;DHT22;23161;51.250;5.554;2024-02-21T02:31:57;8.60;99.90
37274;DHT22;23161;51.250;5.554;2024-02-21T02:33:28;8.70;99.90
37274;DHT22;23161;51.250;5.554;2024-02-21T02:34:59;8.70;99.90
37274;DHT22;23161;51.250;5.554;2024-02-21T02:36:32;8.70;99.90
37274;DHT22;23161;51.250;5.554;2024-02-21T02:38:04;8.70;99.90
37274;DHT22;23161;51.250;5.554;2024-02-21T02:39:35;8.70;99.90
37274;DHT22;23161;51.250;5.554;2024-02-21T02:41:06;8.70;99.90
37274;DHT22;23161;51.250;5.554;2024-02-21T02:42:36;8.70;99.90
37274;DHT22;23161;51.250;5.554;2024-02-21T02:44:07;8.70;99.90
37274;DHT22;23161;51.250;5.554;2024-02-21T02:45:38;8.60;99.90
37274;DHT22;23161;51.250;5.554;2024-02-21T02:47:09;8.60;99.90
37274;DHT22;23161;51.250;5.554;2024-02-21T02:48:40;8.60;99.90
37274;DHT22;23161;51.250;5.554;2024-02-21T02:50:11;8.60;99.90
37274;DHT22;23161;51.250;5.554;2024-02-21T02:51:42;8.60;99.90
37274;DHT22;23161;51.250;5.554;2024-02-21T02:53:14;8.60;99.90
37274;DHT22;23161;51.250;5.554;2024-02-21T02:54:45;8.60;99.90
37274;DHT22;23161;51.250;5.554;2024-02-21T02:56:16;8.60;99.90
37274;DHT22;23161;51.250;5.554;2024-02-21T02:57:48;8.60;99.90
37274;DHT22;23161;51.250;5.554;2024-02-21T02:59:18;8.60;99.90
37274;DHT22;23161;51.250;5.554;2024-02-21T03:00:49;8.60;99.90
37274;DHT22;23161;51.250;5.554;2024-02-21T03:02:20;8.50;99.90
37274;DHT22;23161;51.250;5.554;2024-02-21T03:03:51;8.50;99.90
37274;DHT22;23161;51.250;5.554;2024-02-21T03:05:22;8.50;99.90
37274;DHT22;23161;51.250;5.554;2024-02-21T03:06:53;8.50;99.90
37274;DHT22;23161;51.250;5.554;2024-02-21T03:08:24;8.50;99.90
37274;DHT22;23161;51.250;5.554;2024-02-21T03:09:54;8.50;99.90
37274;DHT22;23161;51.250;5.554;2024-02-21T03:11:25;8.50;99.90
37274;DHT22;23161;51.250;5.554;2024-02-21T03:12:59;8.50;99.90
37274;DHT22;23161;51.250;5.554;2024-02-21T03:14:30;8.50;99.90
37274;DHT22;23161;51.250;5.554;2024-02-21T03:16:01;8.50;99.90
37274;DHT22;23161;51.250;5.554;2024-02-21T03:17:32;8.50;99.90
37274;DHT22;23161;51.250;5.554;2024-02-21T03:19:04;8.50;99.90
37274;DHT22;23161;51.250;5.554;2024-02-21T03:20:35;8.50;99.90
37274;DHT22;23161;51.250;5.554;2024-02-21T03:22:06;8.50;99.90
37274;DHT22;23161;51.250;5.554;2024-02-21T03:23:37;8.50;99.90
37274;DHT22;23161;51.250;5.554;2024-02-21T03:25:08;8.50;99.90
37274;DHT22;23161;51.250;5.554;2024-02-21T03:26:40;8.50;99.90
37274;DHT22;23161;51.250;5.554;2024-02-21T03:28:11;8.50;99.90
37274;DHT22;23161;51.250;5.554;2024-02-21T03:29:42;8.40;99.90
37274;DHT22;23161;51.250;5.554;2024-02-21T03:31:12;8.40;99.90
37274;DHT22;23161;51.250;5.554;2024-02-21T03:32:46;8.40;99.90
37274;DHT22;23161;51.250;5.554;2024-02-21T03:34:17;8.40;99.90
37274;DHT22;23161;51.250;5.554;2024-02-21T03:35:48;8.30;99.90
37274;DHT22;23161;51.250;5.554;2024-02-21T03:37:18;8.30;99.90
37274;DHT22;23161;51.250;5.554;2024-02-21T03:38:49;8.30;99.90
37274;DHT22;23161;51.250;5.554;2024-02-21T03:40:20;8.30;99.90
37274;DHT22;23161;51.250;5.554;2024-02-21T03:41:51;8.30;99.90
37274;DHT22;23161;51.250;5.554;2024-02-21T03:43:22;8.30;99.90
37274;DHT22;23161;51.250;5.554;2024-02-21T03:44:53;8.30;99.90
37274;DHT22;23161;51.250;5.554;2024-02-21T03:46:24;8.30;99.90
37274;DHT22;23161;51.250;5.554;2024-02-21T03:47:55;8.30;99.90
37274;DHT22;23161;51.250;5.554;2024-02-21T03:49:26;8.30;99.90
37274;DHT22;23161;51.250;5.554;2024-02-21T03:50:58;8.30;99.90
37274;DHT22;23161;51.250;5.554;2024-02-21T03:52:29;8.30;99.90
37274;DHT22;23161;51.250;5.554;2024-02-21T03:53:59;8.30;99.90
37274;DHT22;23161;51.250;5.554;2024-02-21T03:55:30;8.30;99.90
37274;DHT22;23161;51.250;5.554;2024-02-21T03:57:01;8.30;99.90
37274;DHT22;23161;51.250;5.554;2024-02-21T03:58:33;8.30;99.90
37274;DHT22;23161;51.250;5.554;2024-02-21T04:00:04;8.30;99.90
37274;DHT22;23161;51.250;5.554;2024-02-21T04:01:38;8.20;99.90
37274;DHT22;23161;51.250;5.554;2024-02-21T04:03:08;8.20;99.90
37274;DHT22;23161;51.250;5.554;2024-02-21T04:04:43;8.10;99.90
37274;DHT22;23161;51.250;5.554;2024-02-21T04:06:16;8.10;99.90
37274;DHT22;23161;51.250;5.554;2024-02-21T04:07:47;8.10;99.90
37274;DHT22;23161;51.250;5.554;2024-02-21T04:09:18;8.10;99.90
37274;DHT22;23161;51.250;5.554;2024-02-21T04:10:49;8.10;99.90
37274;DHT22;23161;51.250;5.554;2024-02-21T04:12:20;8.00;99.90
37274;DHT22;23161;51.250;5.554;2024-02-21T04:13:51;8.00;99.90
37274;DHT22;23161;51.250;5.554;2024-02-21T04:15:22;8.00;99.90
37274;DHT22;23161;51.250;5.554;2024-02-21T04:16:53;8.00;99.90
37274;DHT22;23161;51.250;5.554;2024-02-21T04:18:24;8.00;99.90
37274;DHT22;23161;51.250;5.554;2024-02-21T04:20:02;8.00;99.90
37274;DHT22;23161;51.250;5.554;2024-02-21T04:21:35;8.00;99.90
37274;DHT22;23161;51.250;5.554;2024-02-21T04:23:06;8.00;99.90
37274;DHT22;23161;51.250;5.554;2024-02-21T04:24:37;8.00;99.90
37274;DHT22;23161;51.250;5.554;2024-02-21T04:26:08;8.00;99.90
37274;DHT22;23161;51.250;5.554;2024-02-21T04:27:39;8.10;99.90
37274;DHT22;23161;51.250;5.554;2024-02-21T04:29:10;8.00;99.90
37274;DHT22;23161;51.250;5.554;2024-02-21T04:30:41;8.10;99.90
37274;DHT22;23161;51.250;5.554;2024-02-21T04:32:11;8.10;99.90
37274;DHT22;23161;51.250;5.554;2024-02-21T04:33:42;8.20;99.90
37274;DHT22;23161;51.250;5.554;2024-02-21T04:35:13;8.20;99.90
37274;DHT22;23161;51.250;5.554;2024-02-21T04:36:44;8.20;99.90
37274;DHT22;23161;51.250;5.554;2024-02-21T04:38:15;8.30;99.90
37274;DHT22;23161;51.250;5.554;2024-02-21T04:39:48;8.30;99.90
37274;DHT22;23161;51.250;5.554;2024-02-21T04:41:18;8.30;99.90
37274;DHT22;23161;51.250;5.554;2024-02-21T04:42:49;8.30;99.90
37274;DHT22;23161;51.250;5.554;2024-02-21T04:44:20;8.30;99.90
37274;DHT22;23161;51.250;5.554;2024-02-21T04:45:52;8.30;99.90
37274;DHT22;23161;51.250;5.554;2024-02-21T04:47:24;8.30;99.90
37274;DHT22;23161;51.250;5.554;2024-02-21T04:48:55;8.30;99.90
37274;DHT22;23161;51.250;5.554;2024-02-21T04:50:27;8.30;99.90
37274;DHT22;23161;51.250;5.554;2024-02-21T04:51:58;8.30;99.90
37274;DHT22;23161;51.250;5.554;2024-02-21T04:53:28;8.30;99.90
37274;DHT22;23161;51.250;5.554;2024-02-21T04:54:59;8.40;99.90
37274;DHT22;23161;51.250;5.554;2024-02-21T04:56:30;8.30;99.90
37274;DHT22;23161;51.250;5.554;2024-02-21T04:58:01;8.40;99.90
37274;DHT22;23161;51.250;5.554;2024-02-21T04:59:33;8.40;99.90
37274;DHT22;23161;51.250;5.554;2024-02-21T05:01:05;8.40;99.90
37274;DHT22;23161;51.250;5.554;2024-02-21T05:02:36;8.40;99.90
37274;DHT22;23161;51.250;5.554;2024-02-21T05:04:07;8.40;99.90
37274;DHT22;23161;51.250;5.554;2024-02-21T05:05:38;8.40;99.90
37274;DHT22;23161;51.250;5.554;2024-02-21T05:07:08;8.40;99.90
37274;DHT22;23161;51.250;5.554;2024-02-21T05:08:41;8.40;99.90
37274;DHT22;23161;51.250;5.554;2024-02-21T05:10:12;8.40;99.90
37274;DHT22;23161;51.250;5.554;2024-02-21T05:11:43;8.40;99.90
37274;DHT22;23161;51.250;5.554;2024-02-21T05:13:13;8.40;99.90
37274;DHT22;23161;51.250;5.554;2024-02-21T05:14:44;8.40;99.90
37274;DHT22;23161;51.250;5.554;2024-02-21T05:16:15;8.40;99.90
37274;DHT22;23161;51.250;5.554;2024-02-21T05:17:46;8.40;99.90
37274;DHT22;23161;51.250;5.554;2024-02-21T05:19:17;8.40;99.90
37274;DHT22;23161;51.250;5.554;2024-02-21T05:20:47;8.40;99.90
37274;DHT22;23161;51.250;5.554;2024-02-21T05:22:18;8.40;99.90
37274;DHT22;23161;51.250;5.554;2024-02-21T05:23:50;8.40;99.90
37274;DHT22;23161;51.250;5.554;2024-02-21T05:25:20;8.40;99.90
37274;DHT22;23161;51.250;5.554;2024-02-21T05:26:51;8.40;99.90
37274;DHT22;23161;51.250;5.554;2024-02-21T05:28:23;8.40;99.90
37274;DHT22;23161;51.250;5.554;2024-02-21T05:29:54;8.40;99.90
37274;DHT22;23161;51.250;5.554;2024-02-21T05:31:25;8.40;99.90
37274;DHT22;23161;51.250;5.554;2024-02-21T05:32:57;8.40;99.90
37274;DHT22;23161;51.250;5.554;2024-02-21T05:34:28;8.30;99.90
37274;DHT22;23161;51.250;5.554;2024-02-21T05:35:58;8.40;99.90
37274;DHT22;23161;51.250;5.554;2024-02-21T05:37:29;8.40;99.90
37274;DHT22;23161;51.250;5.554;2024-02-21T05:39:00;8.30;99.90
37274;DHT22;23161;51.250;5.554;2024-02-21T05:40:31;8.40;99.90
37274;DHT22;23161;51.250;5.554;2024-02-21T05:42:02;8.40;99.90
37274;DHT22;23161;51.250;5.554;2024-02-21T05:43:33;8.30;99.90
37274;DHT22;23161;51.250;5.554;2024-02-21T05:45:04;8.40;99.90
37274;DHT22;23161;51.250;5.554;2024-02-21T05:46:35;8.40;99.90
37274;DHT22;23161;51.250;5.554;2024-02-21T05:48:07;8.40;99.90
37274;DHT22;23161;51.250;5.554;2024-02-21T05:49:37;8.40;99.90
37274;DHT22;23161;51.250;5.554;2024-02-21T05:51:08;8.40;99.90
37274;DHT22;23161;51.250;5.554;2024-02-21T05:52:39;8.40;99.90
37274;DHT22;23161;51.250;5.554;2024-02-21T05:54:10;8.40;99.90
37274;DHT22;23161;51.250;5.554;2024-02-21T05:55:41;8.40;99.90
37274;DHT22;23161;51.250;5.554;2024-02-21T05:57:11;8.40;99.90
37274;DHT22;23161;51.250;5.554;2024-02-21T05:58:42;8.30;99.90
37274;DHT22;23161;51.250;5.554;2024-02-21T06:00:13;8.40;99.90
37274;DHT22;23161;51.250;5.554;2024-02-21T06:01:45;8.40;99.90
37274;DHT22;23161;51.250;5.554;2024-02-21T06:03:15;8.40;99.90
37274;DHT22;23161;51.250;5.554;2024-02-21T06:04:46;8.40;99.90
37274;DHT22;23161;51.250;5.554;2024-02-21T06:06:17;8.40;99.90
37274;DHT22;23161;51.250;5.554;2024-02-21T06:07:48;8.40;99.90
37274;DHT22;23161;51.250;5.554;2024-02-21T06:09:19;8.40;99.90
37274;DHT22;23161;51.250;5.554;2024-02-21T06:10:49;8.60;99.90
37274;DHT22;23161;51.250;5.554;2024-02-21T06:12:24;8.40;99.90
37274;DHT22;23161;51.250;5.554;2024-02-21T06:13:55;8.40;99.90
37274;DHT22;23161;51.250;5.554;2024-02-21T06:15:26;8.40;99.90
37274;DHT22;23161;51.250;5.554;2024-02-21T06:16:57;8.60;99.90
37274;DHT22;23161;51.250;5.554;2024-02-21T06:18:28;8.40;99.90
37274;DHT22;23161;51.250;5.554;2024-02-21T06:19:59;8.40;99.90
37274;DHT22;23161;51.250;5.554;2024-02-21T06:21:30;8.40;99.90
37274;DHT22;23161;51.250;5.554;2024-02-21T06:23:01;8.40;99.90
37274;DHT22;23161;51.250;5.554;2024-02-21T06:24:31;8.40;99.90
37274;DHT22;23161;51.250;5.554;2024-02-21T06:26:02;8.40;99.90
37274;DHT22;23161;51.250;5.554;2024-02-21T06:27:33;8.40;99.90
37274;DHT22;23161;51.250;5.554;2024-02-21T06:29:04;8.40;99.90
37274;DHT22;23161;51.250;5.554;2024-02-21T06:30:35;8.40;99.90
37274;DHT22;23161;51.250;5.554;2024-02-21T06:32:06;8.30;99.90
37274;DHT22;23161;51.250;5.554;2024-02-21T06:33:37;8.30;99.90
37274;DHT22;23161;51.250;5.554;2024-02-21T06:35:08;8.40;99.90
37274;DHT22;23161;51.250;5.554;2024-02-21T06:36:38;8.30;99.90
37274;DHT22;23161;51.250;5.554;2024-02-21T06:38:09;8.40;99.90
37274;DHT22;23161;51.250;5.554;2024-02-21T06:39:40;8.40;99.90
37274;DHT22;23161;51.250;5.554;2024-02-21T06:41:15;8.40;99.90
37274;DHT22;23161;51.250;5.554;2024-02-21T06:42:46;8.40;99.90
37274;DHT22;23161;51.250;5.554;2024-02-21T06:44:17;8.30;99.90
37274;DHT22;23161;51.250;5.554;2024-02-21T06:45:48;8.40;99.90
37274;DHT22;23161;51.250;5.554;2024-02-21T06:47:21;8.30;99.90
37274;DHT22;23161;51.250;5.554;2024-02-21T06:48:52;8.30;99.90
37274;DHT22;23161;51.250;5.554;2024-02-21T06:50:24;8.30;99.90
37274;DHT22;23161;51.250;5.554;2024-02-21T06:51:54;8.30;99.90
37274;DHT22;23161;51.250;5.554;2024-02-21T06:53:25;8.40;99.90
37274;DHT22;23161;51.250;5.554;2024-02-21T06:54:56;8.40;99.90
37274;DHT22;23161;51.250;5.554;2024-02-21T06:56:27;8.30;99.90
37274;DHT22;23161;51.250;5.554;2024-02-21T06:57:59;8.40;99.90
37274;DHT22;23161;51.250;5.554;2024-02-21T06:59:30;8.40;99.90
37274;DHT22;23161;51.250;5.554;2024-02-21T07:01:01;8.40;99.90
37274;DHT22;23161;51.250;5.554;2024-02-21T07:02:32;8.40;99.90
37274;DHT22;23161;51.250;5.554;2024-02-21T07:04:03;8.40;99.90
37274;DHT22;23161;51.250;5.554;2024-02-21T07:05:34;8.40;99.90
37274;DHT22;23161;51.250;5.554;2024-02-21T07:07:05;8.40;99.90
37274;DHT22;23161;51.250;5.554;2024-02-21T07:08:36;8.40;99.90
37274;DHT22;23161;51.250;5.554;2024-02-21T07:10:07;8.40;99.90
37274;DHT22;23161;51.250;5.554;2024-02-21T07:11:38;8.40;99.90
37274;DHT22;23161;51.250;5.554;2024-02-21T07:13:09;8.40;99.90
37274;DHT22;23161;51.250;5.554;2024-02-21T07:14:40;8.40;99.90
37274;DHT22;23161;51.250;5.554;2024-02-21T07:16:10;8.40;99.90
37274;DHT22;23161;51.250;5.554;2024-02-21T07:17:42;8.50;99.90
37274;DHT22;23161;51.250;5.554;2024-02-21T07:19:12;8.50;99.90
37274;DHT22;23161;51.250;5.554;2024-02-21T07:20:43;8.50;99.90
37274;DHT22;23161;51.250;5.554;2024-02-21T07:22:14;8.50;99.90
37274;DHT22;23161;51.250;5.554;2024-02-21T07:23:45;8.50;99.90
37274;DHT22;23161;51.250;5.554;2024-02-21T07:25:15;8.50;99.90
37274;DHT22;23161;51.250;5.554;2024-02-21T07:26:46;8.50;99.90
37274;DHT22;23161;51.250;5.554;2024-02-21T07:28:17;8.50;99.90
37274;DHT22;23161;51.250;5.554;2024-02-21T07:29:48;8.50;99.90
37274;DHT22;23161;51.250;5.554;2024-02-21T07:31:19;8.50;99.90
37274;DHT22;23161;51.250;5.554;2024-02-21T07:32:51;8.50;99.90
37274;DHT22;23161;51.250;5.554;2024-02-21T07:35:53;8.50;99.90
37274;DHT22;23161;51.250;5.554;2024-02-21T07:37:25;8.50;99.90
37274;DHT22;23161;51.250;5.554;2024-02-21T07:38:56;8.50;99.90
37274;DHT22;23161;51.250;5.554;2024-02-21T07:40:27;8.50;99.90
37274;DHT22;23161;51.250;5.554;2024-02-21T07:41:57;8.50;99.90
37274;DHT22;23161;51.250;5.554;2024-02-21T07:43:28;8.60;99.90
37274;DHT22;23161;51.250;5.554;2024-02-21T07:44:59;8.50;99.90
37274;DHT22;23161;51.250;5.554;2024-02-21T07:46:30;8.50;99.90
37274;DHT22;23161;51.250;5.554;2024-02-21T07:48:01;8.60;99.90
37274;DHT22;23161;51.250;5.554;2024-02-21T07:49:32;8.50;99.90
37274;DHT22;23161;51.250;5.554;2024-02-21T07:51:03;8.50;99.90
37274;DHT22;23161;51.250;5.554;2024-02-21T07:52:34;8.50;99.90
37274;DHT22;23161;51.250;5.554;2024-02-21T07:54:05;8.50;99.90
37274;DHT22;23161;51.250;5.554;2024-02-21T07:55:36;8.50;99.90
37274;DHT22;23161;51.250;5.554;2024-02-21T07:57:07;8.50;99.90
37274;DHT22;23161;51.250;5.554;2024-02-21T07:58:38;8.50;99.90
37274;DHT22;23161;51.250;5.554;2024-02-21T08:00:09;8.50;99.90
37274;DHT22;23161;51.250;5.554;2024-02-21T08:01:44;8.50;99.90
37274;DHT22;23161;51.250;5.554;2024-02-21T08:03:15;8.50;99.90
37274;DHT22;23161;51.250;5.554;2024-02-21T08:04:48;8.50;99.90
37274;DHT22;23161;51.250;5.554;2024-02-21T08:06:18;8.50;99.90
37274;DHT22;23161;51.250;5.554;2024-02-21T08:07:49;8.50;99.90
37274;DHT22;23161;51.250;5.554;2024-02-21T08:09:21;8.60;99.90
37274;DHT22;23161;51.250;5.554;2024-02-21T08:10:51;8.50;99.90
37274;DHT22;23161;51.250;5.554;2024-02-21T08:12:22;8.50;99.90
37274;DHT22;23161;51.250;5.554;2024-02-21T08:13:53;8.50;99.90
37274;DHT22;23161;51.250;5.554;2024-02-21T08:15:24;8.50;99.90
37274;DHT22;23161;51.250;5.554;2024-02-21T08:16:59;8.50;99.90
37274;DHT22;23161;51.250;5.554;2024-02-21T08:18:30;8.50;99.90
37274;DHT22;23161;51.250;5.554;2024-02-21T08:20:01;8.50;99.90
37274;DHT22;23161;51.250;5.554;2024-02-21T08:21:33;8.50;99.90
37274;DHT22;23161;51.250;5.554;2024-02-21T08:23:04;8.50;99.90
37274;DHT22;23161;51.250;5.554;2024-02-21T08:24:34;8.40;99.90
37274;DHT22;23161;51.250;5.554;2024-02-21T08:26:05;8.40;99.90
37274;DHT22;23161;51.250;5.554;2024-02-21T08:27:37;8.30;99.90
37274;DHT22;23161;51.250;5.554;2024-02-21T08:29:08;8.30;99.90
37274;DHT22;23161;51.250;5.554;2024-02-21T08:30:39;8.30;99.90
37274;DHT22;23161;51.250;5.554;2024-02-21T08:33:41;8.20;99.90
37274;DHT22;23161;51.250;5.554;2024-02-21T08:35:11;8.20;99.90
37274;DHT22;23161;51.250;5.554;2024-02-21T08:36:43;8.20;99.90
37274;DHT22;23161;51.250;5.554;2024-02-21T08:38:13;8.10;99.90
37274;DHT22;23161;51.250;5.554;2024-02-21T08:39:44;8.10;99.90
37274;DHT22;23161;51.250;5.554;2024-02-21T08:41:15;8.10;99.90
37274;DHT22;23161;51.250;5.554;2024-02-21T08:42:47;8.20;99.90
37274;DHT22;23161;51.250;5.554;2024-02-21T08:44:18;8.20;99.90
37274;DHT22;23161;51.250;5.554;2024-02-21T08:45:49;8.20;99.90
37274;DHT22;23161;51.250;5.554;2024-02-21T08:47:20;8.30;99.90
37274;DHT22;23161;51.250;5.554;2024-02-21T08:48:51;8.30;99.90
37274;DHT22;23161;51.250;5.554;2024-02-21T08:50:21;8.30;99.90
37274;DHT22;23161;51.250;5.554;2024-02-21T08:51:52;8.30;99.90
37274;DHT22;23161;51.250;5.554;2024-02-21T08:53:23;8.40;99.90
37274;DHT22;23161;51.250;5.554;2024-02-21T08:54:54;8.40;99.90
37274;DHT22;23161;51.250;5.554;2024-02-21T08:56:25;8.40;99.90
37274;DHT22;23161;51.250;5.554;2024-02-21T08:57:57;8.50;99.90
37274;DHT22;23161;51.250;5.554;2024-02-21T08:59:27;8.50;99.90
37274;DHT22;23161;51.250;5.554;2024-02-21T09:00:58;8.50;99.90
37274;DHT22;23161;51.250;5.554;2024-02-21T09:02:29;8.50;99.90
37274;DHT22;23161;51.250;5.554;2024-02-21T09:04:00;8.50;99.90
37274;DHT22;23161;51.250;5.554;2024-02-21T09:05:30;8.60;99.90
37274;DHT22;23161;51.250;5.554;2024-02-21T09:07:01;8.70;99.90
37274;DHT22;23161;51.250;5.554;2024-02-21T09:08:32;8.70;99.90
37274;DHT22;23161;51.250;5.554;2024-02-21T09:10:04;8.80;99.90
37274;DHT22;23161;51.250;5.554;2024-02-21T09:11:35;8.80;99.90
37274;DHT22;23161;51.250;5.554;2024-02-21T09:13:05;8.90;99.90
37274;DHT22;23161;51.250;5.554;2024-02-21T09:14:38;8.90;99.90
37274;DHT22;23161;51.250;5.554;2024-02-21T09:16:09;8.90;99.90
37274;DHT22;23161;51.250;5.554;2024-02-21T09:17:40;8.90;99.90
37274;DHT22;23161;51.250;5.554;2024-02-21T09:19:10;8.90;99.90
37274;DHT22;23161;51.250;5.554;2024-02-21T09:20:41;8.90;99.90
37274;DHT22;23161;51.250;5.554;2024-02-21T09:22:12;8.90;99.90
37274;DHT22;23161;51.250;5.554;2024-02-21T09:23:43;8.90;99.90
37274;DHT22;23161;51.250;5.554;2024-02-21T09:25:14;8.90;99.90
37274;DHT22;23161;51.250;5.554;2024-02-21T09:26:45;8.90;99.90
37274;DHT22;23161;51.250;5.554;2024-02-21T09:28:16;8.90;99.90
37274;DHT22;23161;51.250;5.554;2024-02-21T09:29:47;9.00;99.90
37274;DHT22;23161;51.250;5.554;2024-02-21T09:31:17;9.00;99.90
37274;DHT22;23161;51.250;5.554;2024-02-21T09:32:48;9.00;99.90
37274;DHT22;23161;51.250;5.554;2024-02-21T09:34:19;9.00;99.90
37274;DHT22;23161;51.250;5.554;2024-02-21T09:35:50;9.00;99.90
37274;DHT22;23161;51.250;5.554;2024-02-21T09:37:21;9.00;99.90
37274;DHT22;23161;51.250;5.554;2024-02-21T09:38:51;9.00;99.90
37274;DHT22;23161;51.250;5.554;2024-02-21T09:40:22;9.10;99.90
37274;DHT22;23161;51.250;5.554;2024-02-21T09:41:59;9.10;99.90
37274;DHT22;23161;51.250;5.554;2024-02-21T09:43:36;9.20;99.90
37274;DHT22;23161;51.250;5.554;2024-02-21T09:45:21;9.20;99.90
37274;DHT22;23161;51.250;5.554;2024-02-21T09:46:57;9.20;99.90
37274;DHT22;23161;51.250;5.554;2024-02-21T09:50:22;9.20;99.90
37274;DHT22;23161;51.250;5.554;2024-02-21T09:51:56;9.30;99.90
37274;DHT22;23161;51.250;5.554;2024-02-21T09:53:28;9.30;99.90
37274;DHT22;23161;51.250;5.554;2024-02-21T09:55:01;9.30;99.90
37274;DHT22;23161;51.250;5.554;2024-02-21T09:56:32;9.30;99.90
37274;DHT22;23161;51.250;5.554;2024-02-21T09:58:03;9.30;99.90
37274;DHT22;23161;51.250;5.554;2024-02-21T09:59:35;9.30;99.90
37274;DHT22;23161;51.250;5.554;2024-02-21T10:01:06;9.30;99.90
37274;DHT22;23161;51.250;5.554;2024-02-21T10:02:39;9.40;99.90
37274;DHT22;23161;51.250;5.554;2024-02-21T10:04:10;9.40;99.90
37274;DHT22;23161;51.250;5.554;2024-02-21T10:05:49;9.40;99.90
37274;DHT22;23161;51.250;5.554;2024-02-21T10:07:23;9.50;99.90